sensor_id;sensor_type;location;lat;lon;timestamp;temperature;humidity
46309;DHT22;32037;50.820;6.494;2023-07-08T00:01:16;26.30;46.20
46309;DHT22;32037;50.820;6.494;2023-07-08T00:03:45;26.30;46.20
46309;DHT22;32037;50.820;6.494;2023-07-08T00:06:17;26.30;46.20
46309;DHT22;32037;50.820;6.494;2023-07-08T00:08:46;26.30;46.30
46309;DHT22;32037;50.820;6.494;2023-07-08T00:11:16;26.30;46.40
46309;DHT22;32037;50.820;6.494;2023-07-08T00:13:45;26.30;46.20
46309;DHT22;32037;50.820;6.494;2023-07-08T00:16:15;26.30;46.30
46309;DHT22;32037;50.820;6.494;2023-07-08T00:18:44;26.30;46.40
46309;DHT22;32037;50.820;6.494;2023-07-08T00:21:14;26.30;46.30
46309;DHT22;32037;50.820;6.494;2023-07-08T00:23:44;26.30;46.40
46309;DHT22;32037;50.820;6.494;2023-07-08T00:26:17;26.30;46.40
46309;DHT22;32037;50.820;6.494;2023-07-08T00:28:47;26.30;46.40
46309;DHT22;32037;50.820;6.494;2023-07-08T00:31:15;26.30;46.50
46309;DHT22;32037;50.820;6.494;2023-07-08T00:33:44;26.30;46.40
46309;DHT22;32037;50.820;6.494;2023-07-08T00:36:14;26.30;46.40
46309;DHT22;32037;50.820;6.494;2023-07-08T00:38:44;26.30;46.30
46309;DHT22;32037;50.820;6.494;2023-07-08T00:41:18;26.30;46.30
46309;DHT22;32037;50.820;6.494;2023-07-08T00:43:50;26.30;46.20
46309;DHT22;32037;50.820;6.494;2023-07-08T00:46:34;26.30;46.20
46309;DHT22;32037;50.820;6.494;2023-07-08T00:49:17;26.30;46.40
46309;DHT22;32037;50.820;6.494;2023-07-08T00:51:48;26.30;46.40
46309;DHT22;32037;50.820;6.494;2023-07-08T00:54:18;26.30;46.40
46309;DHT22;32037;50.820;6.494;2023-07-08T00:56:51;26.30;46.20
46309;DHT22;32037;50.820;6.494;2023-07-08T00:59:29;26.30;46.20
46309;DHT22;32037;50.820;6.494;2023-07-08T01:02:03;26.30;46.20
46309;DHT22;32037;50.820;6.494;2023-07-08T01:04:37;26.30;46.20
46309;DHT22;32037;50.820;6.494;2023-07-08T01:07:10;26.30;46.10
46309;DHT22;32037;50.820;6.494;2023-07-08T01:09:43;26.30;46.20
46309;DHT22;32037;50.820;6.494;2023-07-08T01:12:18;26.30;46.20
46309;DHT22;32037;50.820;6.494;2023-07-08T01:14:48;26.30;46.20
46309;DHT22;32037;50.820;6.494;2023-07-08T01:17:20;26.30;46.30
46309;DHT22;32037;50.820;6.494;2023-07-08T01:19:50;26.30;46.40
46309;DHT22;32037;50.820;6.494;2023-07-08T01:22:24;26.30;46.40
46309;DHT22;32037;50.820;6.494;2023-07-08T01:24:58;26.30;46.40
46309;DHT22;32037;50.820;6.494;2023-07-08T01:27:33;26.30;46.40
46309;DHT22;32037;50.820;6.494;2023-07-08T01:30:04;26.30;46.40
46309;DHT22;32037;50.820;6.494;2023-07-08T01:32:34;26.30;46.50
46309;DHT22;32037;50.820;6.494;2023-07-08T01:35:05;26.30;46.50
46309;DHT22;32037;50.820;6.494;2023-07-08T01:37:44;26.30;46.60
46309;DHT22;32037;50.820;6.494;2023-07-08T01:40:34;26.30;46.70
46309;DHT22;32037;50.820;6.494;2023-07-08T01:43:04;26.30;46.70
46309;DHT22;32037;50.820;6.494;2023-07-08T01:45:39;26.30;46.60
46309;DHT22;32037;50.820;6.494;2023-07-08T01:48:11;26.30;46.70
46309;DHT22;32037;50.820;6.494;2023-07-08T01:50:44;26.30;46.70
46309;DHT22;32037;50.820;6.494;2023-07-08T01:53:18;26.30;46.70
46309;DHT22;32037;50.820;6.494;2023-07-08T01:55:47;26.30;46.70
46309;DHT22;32037;50.820;6.494;2023-07-08T01:58:17;26.30;46.60
46309;DHT22;32037;50.820;6.494;2023-07-08T02:00:46;26.30;46.80
46309;DHT22;32037;50.820;6.494;2023-07-08T02:03:15;26.30;46.80
46309;DHT22;32037;50.820;6.494;2023-07-08T02:05:44;26.20;46.80
46309;DHT22;32037;50.820;6.494;2023-07-08T02:08:14;26.20;46.70
46309;DHT22;32037;50.820;6.494;2023-07-08T02:10:44;26.20;46.80
46309;DHT22;32037;50.820;6.494;2023-07-08T02:13:13;26.20;46.80
46309;DHT22;32037;50.820;6.494;2023-07-08T02:15:41;26.20;46.80
46309;DHT22;32037;50.820;6.494;2023-07-08T02:18:10;26.20;46.70
46309;DHT22;32037;50.820;6.494;2023-07-08T02:20:38;26.20;46.70
46309;DHT22;32037;50.820;6.494;2023-07-08T02:23:07;26.20;46.70
46309;DHT22;32037;50.820;6.494;2023-07-08T02:25:37;26.20;46.70
46309;DHT22;32037;50.820;6.494;2023-07-08T02:28:05;26.20;46.60
46309;DHT22;32037;50.820;6.494;2023-07-08T02:30:34;26.20;46.60
46309;DHT22;32037;50.820;6.494;2023-07-08T02:33:04;26.20;46.50
46309;DHT22;32037;50.820;6.494;2023-07-08T02:35:34;26.20;46.50
46309;DHT22;32037;50.820;6.494;2023-07-08T02:38:02;26.20;46.40
46309;DHT22;32037;50.820;6.494;2023-07-08T02:40:32;26.20;46.40
46309;DHT22;32037;50.820;6.494;2023-07-08T02:43:02;26.20;46.40
46309;DHT22;32037;50.820;6.494;2023-07-08T02:45:31;26.20;46.40
46309;DHT22;32037;50.820;6.494;2023-07-08T02:47:59;26.20;46.50
46309;DHT22;32037;50.820;6.494;2023-07-08T02:50:28;26.20;46.50
46309;DHT22;32037;50.820;6.494;2023-07-08T02:52:57;26.20;46.50
46309;DHT22;32037;50.820;6.494;2023-07-08T02:55:25;26.20;46.60
46309;DHT22;32037;50.820;6.494;2023-07-08T02:57:54;26.20;46.50
46309;DHT22;32037;50.820;6.494;2023-07-08T03:00:24;26.20;46.40
46309;DHT22;32037;50.820;6.494;2023-07-08T03:02:52;26.20;46.40
46309;DHT22;32037;50.820;6.494;2023-07-08T03:05:21;26.10;46.40
46309;DHT22;32037;50.820;6.494;2023-07-08T03:07:50;26.10;46.60
46309;DHT22;32037;50.820;6.494;2023-07-08T03:10:18;26.20;46.70
46309;DHT22;32037;50.820;6.494;2023-07-08T03:12:47;26.20;46.60
46309;DHT22;32037;50.820;6.494;2023-07-08T03:15:15;26.10;46.50
46309;DHT22;32037;50.820;6.494;2023-07-08T03:17:45;26.10;46.60
46309;DHT22;32037;50.820;6.494;2023-07-08T03:20:14;26.10;46.60
46309;DHT22;32037;50.820;6.494;2023-07-08T03:22:44;26.10;46.50
46309;DHT22;32037;50.820;6.494;2023-07-08T03:25:13;26.10;46.70
46309;DHT22;32037;50.820;6.494;2023-07-08T03:27:41;26.10;46.70
46309;DHT22;32037;50.820;6.494;2023-07-08T03:30:11;26.10;46.70
46309;DHT22;32037;50.820;6.494;2023-07-08T03:32:40;26.10;46.60
46309;DHT22;32037;50.820;6.494;2023-07-08T03:35:10;26.20;46.70
46309;DHT22;32037;50.820;6.494;2023-07-08T03:37:38;26.10;46.70
46309;DHT22;32037;50.820;6.494;2023-07-08T03:40:09;26.10;46.70
46309;DHT22;32037;50.820;6.494;2023-07-08T03:42:37;26.10;46.60
46309;DHT22;32037;50.820;6.494;2023-07-08T03:45:07;26.10;46.70
46309;DHT22;32037;50.820;6.494;2023-07-08T03:47:35;26.10;47.90
46309;DHT22;32037;50.820;6.494;2023-07-08T03:50:08;26.10;46.60
46309;DHT22;32037;50.820;6.494;2023-07-08T03:52:40;26.10;46.60
46309;DHT22;32037;50.820;6.494;2023-07-08T03:55:11;26.10;46.70
46309;DHT22;32037;50.820;6.494;2023-07-08T03:57:40;26.10;46.70
46309;DHT22;32037;50.820;6.494;2023-07-08T04:00:10;26.10;46.70
46309;DHT22;32037;50.820;6.494;2023-07-08T04:02:41;26.00;46.70
46309;DHT22;32037;50.820;6.494;2023-07-08T04:05:15;26.10;46.80
46309;DHT22;32037;50.820;6.494;2023-07-08T04:07:46;26.00;46.90
46309;DHT22;32037;50.820;6.494;2023-07-08T04:10:15;26.10;46.80
46309;DHT22;32037;50.820;6.494;2023-07-08T04:12:44;26.10;46.80
46309;DHT22;32037;50.820;6.494;2023-07-08T04:15:13;26.00;46.70
46309;DHT22;32037;50.820;6.494;2023-07-08T04:17:45;26.00;46.80
46309;DHT22;32037;50.820;6.494;2023-07-08T04:20:16;26.00;46.70
46309;DHT22;32037;50.820;6.494;2023-07-08T04:22:47;26.00;46.70
46309;DHT22;32037;50.820;6.494;2023-07-08T04:25:17;26.00;46.40
46309;DHT22;32037;50.820;6.494;2023-07-08T04:27:46;26.00;46.60
46309;DHT22;32037;50.820;6.494;2023-07-08T04:30:23;26.00;46.00
46309;DHT22;32037;50.820;6.494;2023-07-08T04:32:52;26.00;46.20
46309;DHT22;32037;50.820;6.494;2023-07-08T04:35:23;26.00;46.30
46309;DHT22;32037;50.820;6.494;2023-07-08T04:37:53;25.90;46.20
46309;DHT22;32037;50.820;6.494;2023-07-08T04:40:21;26.00;46.30
46309;DHT22;32037;50.820;6.494;2023-07-08T04:42:50;26.00;46.30
46309;DHT22;32037;50.820;6.494;2023-07-08T04:45:19;25.90;45.90
46309;DHT22;32037;50.820;6.494;2023-07-08T04:47:48;25.90;46.00
46309;DHT22;32037;50.820;6.494;2023-07-08T04:50:20;25.90;45.90
46309;DHT22;32037;50.820;6.494;2023-07-08T04:52:48;26.00;46.30
46309;DHT22;32037;50.820;6.494;2023-07-08T04:55:19;25.90;46.20
46309;DHT22;32037;50.820;6.494;2023-07-08T04:57:47;25.90;46.00
46309;DHT22;32037;50.820;6.494;2023-07-08T05:00:17;26.00;46.20
46309;DHT22;32037;50.820;6.494;2023-07-08T05:02:47;25.90;45.90
46309;DHT22;32037;50.820;6.494;2023-07-08T05:05:15;26.00;46.00
46309;DHT22;32037;50.820;6.494;2023-07-08T05:07:44;25.90;46.10
46309;DHT22;32037;50.820;6.494;2023-07-08T05:10:13;25.90;47.30
46309;DHT22;32037;50.820;6.494;2023-07-08T05:12:43;25.90;46.20
46309;DHT22;32037;50.820;6.494;2023-07-08T05:15:12;25.90;46.40
46309;DHT22;32037;50.820;6.494;2023-07-08T05:17:40;25.90;46.70
46309;DHT22;32037;50.820;6.494;2023-07-08T05:20:11;25.90;46.80
46309;DHT22;32037;50.820;6.494;2023-07-08T05:22:43;25.90;46.80
46309;DHT22;32037;50.820;6.494;2023-07-08T05:25:13;25.90;47.00
46309;DHT22;32037;50.820;6.494;2023-07-08T05:27:43;25.90;47.20
46309;DHT22;32037;50.820;6.494;2023-07-08T05:30:14;25.90;47.40
46309;DHT22;32037;50.820;6.494;2023-07-08T05:32:43;25.90;48.60
46309;DHT22;32037;50.820;6.494;2023-07-08T05:35:12;25.90;47.50
46309;DHT22;32037;50.820;6.494;2023-07-08T05:37:41;25.90;47.50
46309;DHT22;32037;50.820;6.494;2023-07-08T05:40:15;25.90;47.40
46309;DHT22;32037;50.820;6.494;2023-07-08T05:42:45;25.90;47.40
46309;DHT22;32037;50.820;6.494;2023-07-08T05:45:13;25.90;47.40
46309;DHT22;32037;50.820;6.494;2023-07-08T05:47:42;25.90;47.50
46309;DHT22;32037;50.820;6.494;2023-07-08T05:50:10;25.90;47.40
46309;DHT22;32037;50.820;6.494;2023-07-08T05:52:39;25.90;47.60
46309;DHT22;32037;50.820;6.494;2023-07-08T05:55:08;25.90;47.70
46309;DHT22;32037;50.820;6.494;2023-07-08T05:57:37;25.90;47.70
46309;DHT22;32037;50.820;6.494;2023-07-08T06:00:08;25.90;47.60
46309;DHT22;32037;50.820;6.494;2023-07-08T06:02:38;25.90;47.50
46309;DHT22;32037;50.820;6.494;2023-07-08T06:05:07;25.90;47.60
46309;DHT22;32037;50.820;6.494;2023-07-08T06:07:35;25.90;47.60
46309;DHT22;32037;50.820;6.494;2023-07-08T06:10:05;25.90;47.60
46309;DHT22;32037;50.820;6.494;2023-07-08T06:12:33;25.90;47.60
46309;DHT22;32037;50.820;6.494;2023-07-08T06:15:02;25.90;47.20
46309;DHT22;32037;50.820;6.494;2023-07-08T06:17:32;25.80;47.00
46309;DHT22;32037;50.820;6.494;2023-07-08T06:20:01;25.90;46.80
46309;DHT22;32037;50.820;6.494;2023-07-08T06:22:33;25.80;46.90
46309;DHT22;32037;50.820;6.494;2023-07-08T06:25:05;25.80;46.60
46309;DHT22;32037;50.820;6.494;2023-07-08T06:27:33;25.80;46.70
46309;DHT22;32037;50.820;6.494;2023-07-08T06:30:02;25.80;47.00
46309;DHT22;32037;50.820;6.494;2023-07-08T06:32:32;25.70;46.80
46309;DHT22;32037;50.820;6.494;2023-07-08T06:35:01;25.80;47.20
46309;DHT22;32037;50.820;6.494;2023-07-08T06:37:29;25.80;47.20
46309;DHT22;32037;50.820;6.494;2023-07-08T06:39:58;25.80;47.20
46309;DHT22;32037;50.820;6.494;2023-07-08T06:42:26;25.80;47.30
46309;DHT22;32037;50.820;6.494;2023-07-08T06:45:07;25.80;47.20
46309;DHT22;32037;50.820;6.494;2023-07-08T06:47:37;25.80;47.20
46309;DHT22;32037;50.820;6.494;2023-07-08T06:50:07;25.80;47.30
46309;DHT22;32037;50.820;6.494;2023-07-08T06:52:35;25.80;47.00
46309;DHT22;32037;50.820;6.494;2023-07-08T06:55:06;25.70;46.80
46309;DHT22;32037;50.820;6.494;2023-07-08T06:57:35;25.80;47.00
46309;DHT22;32037;50.820;6.494;2023-07-08T07:00:07;25.80;46.70
46309;DHT22;32037;50.820;6.494;2023-07-08T07:02:38;25.80;46.50
46309;DHT22;32037;50.820;6.494;2023-07-08T07:05:07;25.70;46.50
46309;DHT22;32037;50.820;6.494;2023-07-08T07:07:36;25.70;46.80
46309;DHT22;32037;50.820;6.494;2023-07-08T07:10:05;25.70;47.10
46309;DHT22;32037;50.820;6.494;2023-07-08T07:12:35;25.80;47.10
46309;DHT22;32037;50.820;6.494;2023-07-08T07:15:05;25.80;47.20
46309;DHT22;32037;50.820;6.494;2023-07-08T07:17:33;25.80;47.20
46309;DHT22;32037;50.820;6.494;2023-07-08T07:20:04;25.80;47.00
46309;DHT22;32037;50.820;6.494;2023-07-08T07:22:34;25.80;47.10
46309;DHT22;32037;50.820;6.494;2023-07-08T07:25:03;25.80;47.10
46309;DHT22;32037;50.820;6.494;2023-07-08T07:27:32;25.80;46.90
46309;DHT22;32037;50.820;6.494;2023-07-08T07:30:00;25.80;47.00
46309;DHT22;32037;50.820;6.494;2023-07-08T07:32:29;25.80;47.10
46309;DHT22;32037;50.820;6.494;2023-07-08T07:35:00;25.80;47.20
46309;DHT22;32037;50.820;6.494;2023-07-08T07:37:30;25.80;47.50
46309;DHT22;32037;50.820;6.494;2023-07-08T07:39:58;25.80;47.50
46309;DHT22;32037;50.820;6.494;2023-07-08T07:42:27;25.80;47.50
46309;DHT22;32037;50.820;6.494;2023-07-08T07:44:56;25.90;47.50
46309;DHT22;32037;50.820;6.494;2023-07-08T07:47:24;25.80;47.30
46309;DHT22;32037;50.820;6.494;2023-07-08T07:49:56;25.90;47.40
46309;DHT22;32037;50.820;6.494;2023-07-08T07:52:25;25.80;47.30
46309;DHT22;32037;50.820;6.494;2023-07-08T07:54:55;25.80;47.60
46309;DHT22;32037;50.820;6.494;2023-07-08T07:57:24;25.80;47.70
46309;DHT22;32037;50.820;6.494;2023-07-08T07:59:52;25.90;47.80
46309;DHT22;32037;50.820;6.494;2023-07-08T08:02:21;25.80;47.90
46309;DHT22;32037;50.820;6.494;2023-07-08T08:04:49;25.80;47.80
46309;DHT22;32037;50.820;6.494;2023-07-08T08:07:19;25.80;47.90
46309;DHT22;32037;50.820;6.494;2023-07-08T08:09:48;25.80;48.00
46309;DHT22;32037;50.820;6.494;2023-07-08T08:12:18;25.80;49.30
46309;DHT22;32037;50.820;6.494;2023-07-08T08:14:46;25.80;48.00
46309;DHT22;32037;50.820;6.494;2023-07-08T08:17:15;25.80;48.00
46309;DHT22;32037;50.820;6.494;2023-07-08T08:19:43;25.80;49.20
46309;DHT22;32037;50.820;6.494;2023-07-08T08:22:11;25.90;48.00
46309;DHT22;32037;50.820;6.494;2023-07-08T08:24:40;25.80;47.90
46309;DHT22;32037;50.820;6.494;2023-07-08T08:27:09;25.80;48.00
46309;DHT22;32037;50.820;6.494;2023-07-08T08:29:39;25.90;48.10
46309;DHT22;32037;50.820;6.494;2023-07-08T08:32:10;25.90;48.00
46309;DHT22;32037;50.820;6.494;2023-07-08T08:34:38;25.90;48.00
46309;DHT22;32037;50.820;6.494;2023-07-08T08:37:07;25.90;47.90
46309;DHT22;32037;50.820;6.494;2023-07-08T08:39:35;25.90;48.00
46309;DHT22;32037;50.820;6.494;2023-07-08T08:42:06;25.90;47.90
46309;DHT22;32037;50.820;6.494;2023-07-08T08:44:40;25.90;47.90
46309;DHT22;32037;50.820;6.494;2023-07-08T08:47:29;25.90;47.80
46309;DHT22;32037;50.820;6.494;2023-07-08T08:50:18;25.90;49.00
46309;DHT22;32037;50.820;6.494;2023-07-08T08:52:51;25.90;47.80
46309;DHT22;32037;50.820;6.494;2023-07-08T08:55:23;25.90;47.90
46309;DHT22;32037;50.820;6.494;2023-07-08T08:58:02;25.90;47.90
46309;DHT22;32037;50.820;6.494;2023-07-08T09:00:45;25.90;47.80
46309;DHT22;32037;50.820;6.494;2023-07-08T09:03:22;25.90;47.90
46309;DHT22;32037;50.820;6.494;2023-07-08T09:05:58;25.90;47.80
46309;DHT22;32037;50.820;6.494;2023-07-08T09:08:31;25.90;47.80
46309;DHT22;32037;50.820;6.494;2023-07-08T09:11:10;25.90;47.80
46309;DHT22;32037;50.820;6.494;2023-07-08T09:13:40;25.90;47.60
46309;DHT22;32037;50.820;6.494;2023-07-08T09:16:20;26.00;47.60
46309;DHT22;32037;50.820;6.494;2023-07-08T09:18:58;26.00;47.80
46309;DHT22;32037;50.820;6.494;2023-07-08T09:21:30;25.90;47.70
46309;DHT22;32037;50.820;6.494;2023-07-08T09:24:03;26.00;47.80
46309;DHT22;32037;50.820;6.494;2023-07-08T09:26:36;25.90;47.60
46309;DHT22;32037;50.820;6.494;2023-07-08T09:29:08;26.00;47.70
46309;DHT22;32037;50.820;6.494;2023-07-08T09:31:39;26.00;47.70
46309;DHT22;32037;50.820;6.494;2023-07-08T09:34:11;25.90;47.70
46309;DHT22;32037;50.820;6.494;2023-07-08T09:36:41;25.90;48.90
46309;DHT22;32037;50.820;6.494;2023-07-08T09:39:11;25.90;47.60
46309;DHT22;32037;50.820;6.494;2023-07-08T09:41:42;25.90;47.80
46309;DHT22;32037;50.820;6.494;2023-07-08T09:44:18;26.00;47.90
46309;DHT22;32037;50.820;6.494;2023-07-08T09:46:51;25.90;47.70
46309;DHT22;32037;50.820;6.494;2023-07-08T09:49:23;25.90;47.50
46309;DHT22;32037;50.820;6.494;2023-07-08T09:51:52;25.90;47.40
46309;DHT22;32037;50.820;6.494;2023-07-08T09:54:22;25.90;47.40
46309;DHT22;32037;50.820;6.494;2023-07-08T09:57:00;25.90;47.40
46309;DHT22;32037;50.820;6.494;2023-07-08T09:59:33;25.90;47.50
46309;DHT22;32037;50.820;6.494;2023-07-08T10:02:25;25.90;47.30
46309;DHT22;32037;50.820;6.494;2023-07-08T10:04:56;25.90;47.40
46309;DHT22;32037;50.820;6.494;2023-07-08T10:07:28;25.90;47.40
46309;DHT22;32037;50.820;6.494;2023-07-08T10:10:00;25.90;47.50
46309;DHT22;32037;50.820;6.494;2023-07-08T10:12:31;25.90;47.40
46309;DHT22;32037;50.820;6.494;2023-07-08T10:15:05;25.90;47.10
46309;DHT22;32037;50.820;6.494;2023-07-08T10:17:40;26.00;47.30
46309;DHT22;32037;50.820;6.494;2023-07-08T10:20:11;25.90;47.30
46309;DHT22;32037;50.820;6.494;2023-07-08T10:22:45;26.00;47.30
46309;DHT22;32037;50.820;6.494;2023-07-08T10:25:25;26.00;47.30
46309;DHT22;32037;50.820;6.494;2023-07-08T10:28:03;26.00;47.20
46309;DHT22;32037;50.820;6.494;2023-07-08T10:30:44;26.00;47.00
46309;DHT22;32037;50.820;6.494;2023-07-08T10:33:40;26.00;47.30
46309;DHT22;32037;50.820;6.494;2023-07-08T10:36:21;26.00;47.10
46309;DHT22;32037;50.820;6.494;2023-07-08T10:39:03;26.00;47.20
46309;DHT22;32037;50.820;6.494;2023-07-08T10:41:40;26.00;47.10
46309;DHT22;32037;50.820;6.494;2023-07-08T10:44:19;26.00;47.00
46309;DHT22;32037;50.820;6.494;2023-07-08T10:46:56;26.00;47.00
46309;DHT22;32037;50.820;6.494;2023-07-08T10:49:43;26.00;46.90
46309;DHT22;32037;50.820;6.494;2023-07-08T10:52:31;26.00;47.00
46309;DHT22;32037;50.820;6.494;2023-07-08T10:55:17;26.00;47.20
46309;DHT22;32037;50.820;6.494;2023-07-08T11:00:49;26.00;47.10
46309;DHT22;32037;50.820;6.494;2023-07-08T11:06:39;26.00;47.20
46309;DHT22;32037;50.820;6.494;2023-07-08T11:09:12;26.00;47.00
46309;DHT22;32037;50.820;6.494;2023-07-08T11:11:45;26.00;47.20
46309;DHT22;32037;50.820;6.494;2023-07-08T11:14:20;26.00;47.00
46309;DHT22;32037;50.820;6.494;2023-07-08T11:17:00;26.00;47.20
46309;DHT22;32037;50.820;6.494;2023-07-08T11:19:37;26.00;47.10
46309;DHT22;32037;50.820;6.494;2023-07-08T11:22:10;26.00;47.10
46309;DHT22;32037;50.820;6.494;2023-07-08T11:24:43;26.00;47.10
46309;DHT22;32037;50.820;6.494;2023-07-08T11:27:18;26.00;47.20
46309;DHT22;32037;50.820;6.494;2023-07-08T11:29:55;26.00;47.10
46309;DHT22;32037;50.820;6.494;2023-07-08T11:32:26;26.10;47.20
46309;DHT22;32037;50.820;6.494;2023-07-08T11:34:57;26.10;47.20
46309;DHT22;32037;50.820;6.494;2023-07-08T11:37:29;26.00;46.90
46309;DHT22;32037;50.820;6.494;2023-07-08T11:40:07;26.10;47.10
46309;DHT22;32037;50.820;6.494;2023-07-08T11:42:41;26.00;47.10
46309;DHT22;32037;50.820;6.494;2023-07-08T11:45:27;26.00;47.10
46309;DHT22;32037;50.820;6.494;2023-07-08T11:48:05;26.10;47.00
46309;DHT22;32037;50.820;6.494;2023-07-08T11:50:37;26.10;47.10
46309;DHT22;32037;50.820;6.494;2023-07-08T11:53:12;26.10;47.10
46309;DHT22;32037;50.820;6.494;2023-07-08T11:55:44;26.10;47.10
46309;DHT22;32037;50.820;6.494;2023-07-08T11:58:20;26.10;47.10
46309;DHT22;32037;50.820;6.494;2023-07-08T12:00:59;26.10;47.20
46309;DHT22;32037;50.820;6.494;2023-07-08T12:03:34;26.10;47.10
46309;DHT22;32037;50.820;6.494;2023-07-08T12:06:04;26.10;47.10
46309;DHT22;32037;50.820;6.494;2023-07-08T12:08:55;26.10;47.20
46309;DHT22;32037;50.820;6.494;2023-07-08T12:11:44;26.10;47.20
46309;DHT22;32037;50.820;6.494;2023-07-08T12:14:13;26.10;47.20
46309;DHT22;32037;50.820;6.494;2023-07-08T12:16:43;26.10;47.20
46309;DHT22;32037;50.820;6.494;2023-07-08T12:19:16;26.10;47.10
46309;DHT22;32037;50.820;6.494;2023-07-08T12:21:45;26.20;47.00
46309;DHT22;32037;50.820;6.494;2023-07-08T12:24:15;26.10;46.60
46309;DHT22;32037;50.820;6.494;2023-07-08T12:26:44;26.10;46.80
46309;DHT22;32037;50.820;6.494;2023-07-08T12:29:12;26.10;46.90
46309;DHT22;32037;50.820;6.494;2023-07-08T12:31:42;26.20;46.90
46309;DHT22;32037;50.820;6.494;2023-07-08T12:34:13;26.20;46.80
46309;DHT22;32037;50.820;6.494;2023-07-08T12:36:45;26.20;46.70
46309;DHT22;32037;50.820;6.494;2023-07-08T12:39:16;26.20;46.80
46309;DHT22;32037;50.820;6.494;2023-07-08T12:41:46;26.20;46.80
46309;DHT22;32037;50.820;6.494;2023-07-08T12:44:17;26.20;46.70
46309;DHT22;32037;50.820;6.494;2023-07-08T12:46:52;26.20;46.80
46309;DHT22;32037;50.820;6.494;2023-07-08T12:49:21;26.20;46.90
46309;DHT22;32037;50.820;6.494;2023-07-08T12:51:56;26.20;46.90
46309;DHT22;32037;50.820;6.494;2023-07-08T12:54:28;26.20;47.00
46309;DHT22;32037;50.820;6.494;2023-07-08T12:56:57;26.30;47.00
46309;DHT22;32037;50.820;6.494;2023-07-08T12:59:26;26.30;46.90
46309;DHT22;32037;50.820;6.494;2023-07-08T13:01:58;26.20;47.00
46309;DHT22;32037;50.820;6.494;2023-07-08T13:04:27;26.20;46.90
46309;DHT22;32037;50.820;6.494;2023-07-08T13:06:56;26.20;46.80
46309;DHT22;32037;50.820;6.494;2023-07-08T13:09:34;26.30;46.70
46309;DHT22;32037;50.820;6.494;2023-07-08T13:12:12;26.30;46.90
46309;DHT22;32037;50.820;6.494;2023-07-08T13:14:42;26.30;47.00
46309;DHT22;32037;50.820;6.494;2023-07-08T13:17:13;26.30;47.20
46309;DHT22;32037;50.820;6.494;2023-07-08T13:19:43;26.30;47.00
46309;DHT22;32037;50.820;6.494;2023-07-08T13:22:15;26.30;46.90
46309;DHT22;32037;50.820;6.494;2023-07-08T13:24:46;26.30;46.90
46309;DHT22;32037;50.820;6.494;2023-07-08T13:27:24;26.30;47.00
46309;DHT22;32037;50.820;6.494;2023-07-08T13:29:55;26.40;46.90
46309;DHT22;32037;50.820;6.494;2023-07-08T13:32:30;26.30;46.90
46309;DHT22;32037;50.820;6.494;2023-07-08T13:34:59;26.40;47.00
46309;DHT22;32037;50.820;6.494;2023-07-08T13:37:30;26.40;46.80
46309;DHT22;32037;50.820;6.494;2023-07-08T13:40:00;26.40;46.70
46309;DHT22;32037;50.820;6.494;2023-07-08T13:42:29;26.40;46.80
46309;DHT22;32037;50.820;6.494;2023-07-08T13:44:57;26.40;46.80
46309;DHT22;32037;50.820;6.494;2023-07-08T13:47:28;26.40;46.70
46309;DHT22;32037;50.820;6.494;2023-07-08T13:50:05;26.40;46.70
46309;DHT22;32037;50.820;6.494;2023-07-08T13:52:35;26.40;46.80
46309;DHT22;32037;50.820;6.494;2023-07-08T13:55:15;26.40;46.90
46309;DHT22;32037;50.820;6.494;2023-07-08T13:57:57;26.40;46.90
46309;DHT22;32037;50.820;6.494;2023-07-08T14:00:29;26.40;47.00
46309;DHT22;32037;50.820;6.494;2023-07-08T14:02:58;26.40;47.00
46309;DHT22;32037;50.820;6.494;2023-07-08T14:05:27;26.40;47.10
46309;DHT22;32037;50.820;6.494;2023-07-08T14:07:56;26.40;47.10
46309;DHT22;32037;50.820;6.494;2023-07-08T14:10:26;26.40;47.20
46309;DHT22;32037;50.820;6.494;2023-07-08T14:12:54;26.50;47.20
46309;DHT22;32037;50.820;6.494;2023-07-08T14:15:22;26.40;47.20
46309;DHT22;32037;50.820;6.494;2023-07-08T14:17:51;26.40;47.00
46309;DHT22;32037;50.820;6.494;2023-07-08T14:20:20;26.50;47.20
46309;DHT22;32037;50.820;6.494;2023-07-08T14:22:50;26.50;47.20
46309;DHT22;32037;50.820;6.494;2023-07-08T14:25:19;26.50;47.30
46309;DHT22;32037;50.820;6.494;2023-07-08T14:27:52;26.50;47.30
46309;DHT22;32037;50.820;6.494;2023-07-08T14:30:20;26.50;47.30
46309;DHT22;32037;50.820;6.494;2023-07-08T14:32:50;26.50;47.30
46309;DHT22;32037;50.820;6.494;2023-07-08T14:35:22;26.50;47.30
46309;DHT22;32037;50.820;6.494;2023-07-08T14:37:52;26.50;47.30
46309;DHT22;32037;50.820;6.494;2023-07-08T14:40:26;26.50;47.30
46309;DHT22;32037;50.820;6.494;2023-07-08T14:43:01;26.60;47.30
46309;DHT22;32037;50.820;6.494;2023-07-08T14:45:37;26.60;47.40
46309;DHT22;32037;50.820;6.494;2023-07-08T14:48:08;26.60;47.50
46309;DHT22;32037;50.820;6.494;2023-07-08T14:50:38;26.60;47.50
46309;DHT22;32037;50.820;6.494;2023-07-08T14:53:07;26.60;47.50
46309;DHT22;32037;50.820;6.494;2023-07-08T14:55:36;26.60;47.40
46309;DHT22;32037;50.820;6.494;2023-07-08T14:58:06;26.60;47.50
46309;DHT22;32037;50.820;6.494;2023-07-08T15:00:35;26.60;47.50
46309;DHT22;32037;50.820;6.494;2023-07-08T15:03:04;26.60;47.50
46309;DHT22;32037;50.820;6.494;2023-07-08T15:05:32;26.60;47.50
46309;DHT22;32037;50.820;6.494;2023-07-08T15:08:01;26.70;47.60
46309;DHT22;32037;50.820;6.494;2023-07-08T15:10:33;26.70;47.60
46309;DHT22;32037;50.820;6.494;2023-07-08T15:13:02;26.70;47.60
46309;DHT22;32037;50.820;6.494;2023-07-08T15:15:34;26.70;47.70
46309;DHT22;32037;50.820;6.494;2023-07-08T15:18:10;26.70;47.60
46309;DHT22;32037;50.820;6.494;2023-07-08T15:20:40;26.70;47.60
46309;DHT22;32037;50.820;6.494;2023-07-08T15:23:09;26.70;47.80
46309;DHT22;32037;50.820;6.494;2023-07-08T15:25:44;26.70;47.60
46309;DHT22;32037;50.820;6.494;2023-07-08T15:28:17;26.70;47.60
46309;DHT22;32037;50.820;6.494;2023-07-08T15:30:47;26.70;47.50
46309;DHT22;32037;50.820;6.494;2023-07-08T15:33:16;26.80;47.50
46309;DHT22;32037;50.820;6.494;2023-07-08T15:35:45;26.70;47.50
46309;DHT22;32037;50.820;6.494;2023-07-08T15:38:13;26.70;47.50
46309;DHT22;32037;50.820;6.494;2023-07-08T15:40:42;26.80;47.60
46309;DHT22;32037;50.820;6.494;2023-07-08T15:43:13;26.80;47.50
46309;DHT22;32037;50.820;6.494;2023-07-08T15:45:42;26.80;47.50
46309;DHT22;32037;50.820;6.494;2023-07-08T15:48:14;26.80;47.30
46309;DHT22;32037;50.820;6.494;2023-07-08T15:50:43;26.80;47.50
46309;DHT22;32037;50.820;6.494;2023-07-08T15:53:14;26.80;47.50
46309;DHT22;32037;50.820;6.494;2023-07-08T15:55:45;26.80;47.40
46309;DHT22;32037;50.820;6.494;2023-07-08T15:58:21;26.80;47.40
46309;DHT22;32037;50.820;6.494;2023-07-08T16:00:51;26.80;47.50
46309;DHT22;32037;50.820;6.494;2023-07-08T16:03:25;26.80;47.50